sensor_id;sensor_type;location;lat;lon;timestamp;pressure;altitude;pressure_sealevel;temperature;humidity
61436;BME280;47304;47.456;19.160;2023-10-08T00:00:03;100342.21;;;18.00;41.47
61436;BME280;47304;47.456;19.160;2023-10-08T00:02:29;100339.70;;;18.02;41.26
61436;BME280;47304;47.456;19.160;2023-10-08T00:04:56;100340.69;;;18.04;41.11
61436;BME280;47304;47.456;19.160;2023-10-08T00:07:22;100333.88;;;18.06;41.32
61436;BME280;47304;47.456;19.160;2023-10-08T00:09:50;100324.96;;;18.08;41.22
61436;BME280;47304;47.456;19.160;2023-10-08T00:12:18;100319.73;;;18.11;41.01
61436;BME280;47304;47.456;19.160;2023-10-08T00:14:45;100317.91;;;18.12;40.94
61436;BME280;47304;47.456;19.160;2023-10-08T00:17:12;100311.48;;;18.14;40.86
61436;BME280;47304;47.456;19.160;2023-10-08T00:19:40;100310.02;;;18.15;40.97
61436;BME280;47304;47.456;19.160;2023-10-08T00:22:06;100309.99;;;18.16;40.86
61436;BME280;47304;47.456;19.160;2023-10-08T07:52:53;100172.44;;;20.87;44.16
61436;BME280;47304;47.456;19.160;2023-10-08T07:55:22;100160.42;;;20.85;44.44
61436;BME280;47304;47.456;19.160;2023-10-08T07:57:50;100157.24;;;20.88;44.71
61436;BME280;47304;47.456;19.160;2023-10-08T08:00:19;100158.97;;;20.97;44.81
61436;BME280;47304;47.456;19.160;2023-10-08T08:02:47;100160.56;;;21.05;44.88
61436;BME280;47304;47.456;19.160;2023-10-08T08:05:16;100164.05;;;21.14;44.82
61436;BME280;47304;47.456;19.160;2023-10-08T08:07:45;100168.50;;;21.25;44.77
61436;BME280;47304;47.456;19.160;2023-10-08T08:10:13;100170.08;;;21.37;44.73
61436;BME280;47304;47.456;19.160;2023-10-08T08:12:42;100167.73;;;21.45;44.37
61436;BME280;47304;47.456;19.160;2023-10-08T08:15:11;100172.80;;;21.54;44.55
61436;BME280;47304;47.456;19.160;2023-10-08T08:17:39;100175.81;;;21.59;44.42
61436;BME280;47304;47.456;19.160;2023-10-08T08:20:10;100177.33;;;21.60;44.40
61436;BME280;47304;47.456;19.160;2023-10-08T08:22:39;100184.16;;;21.67;44.76
61436;BME280;47304;47.456;19.160;2023-10-08T08:25:08;100186.06;;;21.75;44.50
61436;BME280;47304;47.456;19.160;2023-10-08T08:27:37;100187.45;;;21.79;44.37
61436;BME280;47304;47.456;19.160;2023-10-08T08:30:08;100184.67;;;21.85;44.36
61436;BME280;47304;47.456;19.160;2023-10-08T08:32:36;100193.33;;;21.90;44.22
61436;BME280;47304;47.456;19.160;2023-10-08T08:35:06;100197.41;;;21.98;44.20
61436;BME280;47304;47.456;19.160;2023-10-08T08:37:35;100203.25;;;22.05;44.20
61436;BME280;47304;47.456;19.160;2023-10-08T08:40:03;100209.73;;;22.15;44.10
61436;BME280;47304;47.456;19.160;2023-10-08T08:42:33;100214.29;;;22.27;43.93
61436;BME280;47304;47.456;19.160;2023-10-08T08:45:03;100207.50;;;22.42;43.96
61436;BME280;47304;47.456;19.160;2023-10-08T08:47:31;100194.98;;;22.52;43.42
61436;BME280;47304;47.456;19.160;2023-10-08T08:50:00;100186.92;;;22.66;43.56
61436;BME280;47304;47.456;19.160;2023-10-08T08:52:29;100194.52;;;22.84;43.19
61436;BME280;47304;47.456;19.160;2023-10-08T08:54:58;100193.06;;;22.98;43.08
61436;BME280;47304;47.456;19.160;2023-10-08T08:57:26;100198.83;;;23.24;42.86
61436;BME280;47304;47.456;19.160;2023-10-08T08:59:56;100210.85;;;23.61;42.29
61436;BME280;47304;47.456;19.160;2023-10-08T09:02:26;100209.38;;;23.68;42.09
61436;BME280;47304;47.456;19.160;2023-10-08T09:04:54;100211.38;;;23.45;42.59
61436;BME280;47304;47.456;19.160;2023-10-08T09:07:23;100213.05;;;23.32;42.54
61436;BME280;47304;47.456;19.160;2023-10-08T09:09:52;100203.81;;;23.18;42.63
61436;BME280;47304;47.456;19.160;2023-10-08T09:12:26;100207.71;;;23.11;42.79
61436;BME280;47304;47.456;19.160;2023-10-08T09:15:01;100218.42;;;23.18;42.77
61436;BME280;47304;47.456;19.160;2023-10-08T09:17:30;100208.83;;;23.14;42.82
61436;BME280;47304;47.456;19.160;2023-10-08T09:19:58;100218.67;;;23.10;43.08
61436;BME280;47304;47.456;19.160;2023-10-08T09:22:26;100227.17;;;22.95;43.36
61436;BME280;47304;47.456;19.160;2023-10-08T09:24:55;100234.47;;;22.85;43.62
61436;BME280;47304;47.456;19.160;2023-10-08T09:27:27;100246.04;;;22.69;43.89
61436;BME280;47304;47.456;19.160;2023-10-08T09:29:56;100252.61;;;22.56;44.29
61436;BME280;47304;47.456;19.160;2023-10-08T09:32:24;100264.38;;;22.46;44.45
61436;BME280;47304;47.456;19.160;2023-10-08T09:34:53;100270.48;;;22.31;44.72
61436;BME280;47304;47.456;19.160;2023-10-08T09:37:22;100272.41;;;22.21;44.88
61436;BME280;47304;47.456;19.160;2023-10-08T09:39:52;100285.86;;;22.12;45.38
61436;BME280;47304;47.456;19.160;2023-10-08T09:42:23;100286.45;;;22.00;45.96
61436;BME280;47304;47.456;19.160;2023-10-08T09:44:51;100295.62;;;21.91;46.01
61436;BME280;47304;47.456;19.160;2023-10-08T09:47:23;100298.16;;;21.83;46.44
61436;BME280;47304;47.456;19.160;2023-10-08T09:49:59;100297.86;;;21.75;46.59
61436;BME280;47304;47.456;19.160;2023-10-08T09:52:33;100297.96;;;21.69;46.74
61436;BME280;47304;47.456;19.160;2023-10-08T09:55:09;100299.55;;;21.65;47.05
61436;BME280;47304;47.456;19.160;2023-10-08T09:57:38;100296.77;;;21.67;47.25
61436;BME280;47304;47.456;19.160;2023-10-08T10:00:08;100299.09;;;21.86;46.93
61436;BME280;47304;47.456;19.160;2023-10-08T10:02:37;100307.58;;;22.06;46.78
61436;BME280;47304;47.456;19.160;2023-10-08T10:05:06;100317.39;;;22.02;47.08
61436;BME280;47304;47.456;19.160;2023-10-08T10:07:38;100323.72;;;21.96;46.78
61436;BME280;47304;47.456;19.160;2023-10-08T10:10:26;100328.73;;;21.89;47.07
61436;BME280;47304;47.456;19.160;2023-10-08T10:12:58;100334.30;;;21.81;47.29
61436;BME280;47304;47.456;19.160;2023-10-08T10:15:27;100341.95;;;21.74;47.31
61436;BME280;47304;47.456;19.160;2023-10-08T10:30:09;100367.40;;;21.62;47.30
61436;BME280;47304;47.456;19.160;2023-10-08T10:32:37;100363.40;;;21.68;47.06
61436;BME280;47304;47.456;19.160;2023-10-08T10:35:06;100365.83;;;21.66;47.21
61436;BME280;47304;47.456;19.160;2023-10-08T10:37:35;100372.56;;;21.59;47.35
61436;BME280;47304;47.456;19.160;2023-10-08T10:40:04;100363.85;;;21.46;47.63
61436;BME280;47304;47.456;19.160;2023-10-08T10:42:35;100350.38;;;21.64;47.59
61436;BME280;47304;47.456;19.160;2023-10-08T10:45:04;100348.16;;;22.30;47.07
61436;BME280;47304;47.456;19.160;2023-10-08T10:47:33;100369.08;;;22.76;46.07
61436;BME280;47304;47.456;19.160;2023-10-08T10:50:01;100366.83;;;23.19;45.26
61436;BME280;47304;47.456;19.160;2023-10-08T10:52:30;100365.95;;;23.85;43.55
61436;BME280;47304;47.456;19.160;2023-10-08T10:55:02;100362.13;;;24.59;42.52
61436;BME280;47304;47.456;19.160;2023-10-08T10:57:31;100358.13;;;24.97;41.74
61436;BME280;47304;47.456;19.160;2023-10-08T11:00:04;100362.95;;;25.20;41.08
61436;BME280;47304;47.456;19.160;2023-10-08T11:02:32;100378.16;;;25.30;40.34
61436;BME280;47304;47.456;19.160;2023-10-08T11:05:01;100380.38;;;25.66;39.01
61436;BME280;47304;47.456;19.160;2023-10-08T11:07:30;100391.50;;;25.40;38.79
61436;BME280;47304;47.456;19.160;2023-10-08T11:09:58;100387.52;;;25.06;39.01
61436;BME280;47304;47.456;19.160;2023-10-08T11:12:27;100383.13;;;24.95;38.65
61436;BME280;47304;47.456;19.160;2023-10-08T11:14:56;100386.23;;;24.73;38.67
61436;BME280;47304;47.456;19.160;2023-10-08T11:17:25;100387.61;;;24.55;38.72
61436;BME280;47304;47.456;19.160;2023-10-08T11:19:54;100390.39;;;24.35;38.64
61436;BME280;47304;47.456;19.160;2023-10-08T11:22:22;100391.83;;;24.22;38.61
61436;BME280;47304;47.456;19.160;2023-10-08T11:24:50;100395.73;;;24.13;38.69
61436;BME280;47304;47.456;19.160;2023-10-08T11:27:19;100395.83;;;23.92;39.24
61436;BME280;47304;47.456;19.160;2023-10-08T11:29:49;100393.27;;;23.80;39.43
61436;BME280;47304;47.456;19.160;2023-10-08T11:32:17;100396.77;;;23.55;39.53
61436;BME280;47304;47.456;19.160;2023-10-08T11:34:48;100397.52;;;23.30;40.02
61436;BME280;47304;47.456;19.160;2023-10-08T11:37:27;100405.23;;;22.99;40.07
61436;BME280;47304;47.456;19.160;2023-10-08T11:39:56;100406.91;;;22.65;40.04
61436;BME280;47304;47.456;19.160;2023-10-08T11:42:24;100409.38;;;22.40;40.13
61436;BME280;47304;47.456;19.160;2023-10-08T11:44:53;100408.49;;;22.21;40.26
61436;BME280;47304;47.456;19.160;2023-10-08T11:47:22;100407.59;;;22.10;40.54
61436;BME280;47304;47.456;19.160;2023-10-08T11:49:50;100412.08;;;21.99;40.82
61436;BME280;47304;47.456;19.160;2023-10-08T11:52:19;100427.40;;;21.91;40.49
61436;BME280;47304;47.456;19.160;2023-10-08T11:54:47;100430.45;;;21.83;40.23
61436;BME280;47304;47.456;19.160;2023-10-08T11:57:16;100434.00;;;21.72;40.12
61436;BME280;47304;47.456;19.160;2023-10-08T11:59:44;100437.05;;;21.59;39.99
61436;BME280;47304;47.456;19.160;2023-10-08T12:02:13;100446.13;;;21.47;40.23
61436;BME280;47304;47.456;19.160;2023-10-08T12:04:42;100457.02;;;21.22;40.44
61436;BME280;47304;47.456;19.160;2023-10-08T12:07:10;100463.05;;;20.93;40.60
61436;BME280;47304;47.456;19.160;2023-10-08T12:09:39;100459.95;;;20.64;41.05
61436;BME280;47304;47.456;19.160;2023-10-08T12:12:10;100461.82;;;20.35;41.32
61436;BME280;47304;47.456;19.160;2023-10-08T12:14:38;100474.84;;;20.06;42.03
61436;BME280;47304;47.456;19.160;2023-10-08T12:17:07;100484.47;;;19.81;42.57
61436;BME280;47304;47.456;19.160;2023-10-08T12:19:35;100480.67;;;19.58;43.16
61436;BME280;47304;47.456;19.160;2023-10-08T12:22:04;100486.01;;;19.43;43.58
61436;BME280;47304;47.456;19.160;2023-10-08T12:24:32;100494.01;;;19.28;43.78
61436;BME280;47304;47.456;19.160;2023-10-08T12:27:01;100493.00;;;19.15;44.14
61436;BME280;47304;47.456;19.160;2023-10-08T12:29:29;100496.42;;;19.03;44.34
61436;BME280;47304;47.456;19.160;2023-10-08T12:31:58;100497.80;;;18.94;44.72
61436;BME280;47304;47.456;19.160;2023-10-08T12:34:26;100500.09;;;18.88;44.53
61436;BME280;47304;47.456;19.160;2023-10-08T12:36:55;100507.00;;;18.83;44.38
61436;BME280;47304;47.456;19.160;2023-10-08T12:39:23;100513.90;;;18.78;44.46
61436;BME280;47304;47.456;19.160;2023-10-08T12:41:52;100519.95;;;18.72;44.19
61436;BME280;47304;47.456;19.160;2023-10-08T12:44:20;100519.81;;;18.65;43.93
61436;BME280;47304;47.456;19.160;2023-10-08T12:46:48;100525.52;;;18.59;43.56
61436;BME280;47304;47.456;19.160;2023-10-08T12:49:17;100526.61;;;18.52;43.63
61436;BME280;47304;47.456;19.160;2023-10-08T12:51:45;100524.48;;;18.46;43.48
61436;BME280;47304;47.456;19.160;2023-10-08T12:54:14;100530.88;;;18.40;43.48
61436;BME280;47304;47.456;19.160;2023-10-08T12:56:43;100533.16;;;18.35;43.89
61436;BME280;47304;47.456;19.160;2023-10-08T12:59:12;100549.55;;;18.32;43.83
61436;BME280;47304;47.456;19.160;2023-10-08T13:01:40;100559.31;;;18.26;43.70
61436;BME280;47304;47.456;19.160;2023-10-08T13:04:09;100568.86;;;18.20;43.65
61436;BME280;47304;47.456;19.160;2023-10-08T13:06:38;100567.88;;;18.18;43.71
61436;BME280;47304;47.456;19.160;2023-10-08T13:09:06;100575.66;;;18.12;43.52
61436;BME280;47304;47.456;19.160;2023-10-08T13:11:35;100582.58;;;17.99;43.32
61436;BME280;47304;47.456;19.160;2023-10-08T13:14:03;100582.88;;;17.87;43.36
61436;BME280;47304;47.456;19.160;2023-10-08T13:16:32;100580.71;;;17.75;43.42
61436;BME280;47304;47.456;19.160;2023-10-08T13:19:00;100583.76;;;17.68;43.50
61436;BME280;47304;47.456;19.160;2023-10-08T13:21:29;100580.05;;;17.60;43.54
61436;BME280;47304;47.456;19.160;2023-10-08T13:23:57;100579.56;;;17.52;43.68
61436;BME280;47304;47.456;19.160;2023-10-08T13:26:26;100593.96;;;17.42;43.62
61436;BME280;47304;47.456;19.160;2023-10-08T13:28:54;100596.27;;;17.35;43.79
61436;BME280;47304;47.456;19.160;2023-10-08T13:31:23;100600.73;;;17.27;43.87
61436;BME280;47304;47.456;19.160;2023-10-08T13:33:52;100608.31;;;17.20;44.14
61436;BME280;47304;47.456;19.160;2023-10-08T13:36:20;100613.86;;;17.18;44.30
61436;BME280;47304;47.456;19.160;2023-10-08T13:38:48;100615.33;;;17.16;44.42
61436;BME280;47304;47.456;19.160;2023-10-08T13:41:17;100613.87;;;17.17;44.61
61436;BME280;47304;47.456;19.160;2023-10-08T13:43:46;100618.29;;;17.18;44.45
61436;BME280;47304;47.456;19.160;2023-10-08T13:46:16;100609.24;;;17.19;44.52
61436;BME280;47304;47.456;19.160;2023-10-08T13:48:45;100608.30;;;17.21;44.52
61436;BME280;47304;47.456;19.160;2023-10-08T13:51:15;100618.05;;;17.20;44.33
61436;BME280;47304;47.456;19.160;2023-10-08T13:53:49;100622.39;;;17.17;44.28
61436;BME280;47304;47.456;19.160;2023-10-08T13:56:18;100629.70;;;17.14;44.31
61436;BME280;47304;47.456;19.160;2023-10-08T13:58:50;100638.63;;;17.10;44.25
61436;BME280;47304;47.456;19.160;2023-10-08T14:01:18;100635.97;;;17.03;44.23
61436;BME280;47304;47.456;19.160;2023-10-08T14:03:47;100631.48;;;16.98;44.23
61436;BME280;47304;47.456;19.160;2023-10-08T14:06:16;100629.73;;;16.97;44.42
61436;BME280;47304;47.456;19.160;2023-10-08T14:08:46;100635.96;;;16.95;44.42
61436;BME280;47304;47.456;19.160;2023-10-08T14:11:14;100638.69;;;16.91;44.61
61436;BME280;47304;47.456;19.160;2023-10-08T14:13:46;100636.27;;;16.88;44.54
61436;BME280;47304;47.456;19.160;2023-10-08T14:16:14;100638.09;;;16.86;44.55
61436;BME280;47304;47.456;19.160;2023-10-08T14:18:42;100648.41;;;16.83;44.77
61436;BME280;47304;47.456;19.160;2023-10-08T14:21:11;100659.66;;;16.78;44.68
61436;BME280;47304;47.456;19.160;2023-10-08T14:23:40;100653.56;;;16.74;44.76
61436;BME280;47304;47.456;19.160;2023-10-08T14:26:09;100659.10;;;16.72;44.90
61436;BME280;47304;47.456;19.160;2023-10-08T14:28:38;100663.79;;;16.67;44.47
61436;BME280;47304;47.456;19.160;2023-10-08T14:31:07;100660.33;;;16.63;44.49
61436;BME280;47304;47.456;19.160;2023-10-08T14:33:35;100660.61;;;16.59;44.51
61436;BME280;47304;47.456;19.160;2023-10-08T14:36:04;100668.29;;;16.55;44.45
61436;BME280;47304;47.456;19.160;2023-10-08T14:38:33;100668.55;;;16.50;44.52
61436;BME280;47304;47.456;19.160;2023-10-08T14:41:01;100672.50;;;16.47;44.73
61436;BME280;47304;47.456;19.160;2023-10-08T14:43:30;100679.27;;;16.45;44.70
61436;BME280;47304;47.456;19.160;2023-10-08T14:45:59;100680.53;;;16.43;44.58
61436;BME280;47304;47.456;19.160;2023-10-08T14:48:28;100681.81;;;16.42;44.32
61436;BME280;47304;47.456;19.160;2023-10-08T14:50:56;100684.70;;;16.39;43.83
61436;BME280;47304;47.456;19.160;2023-10-08T14:53:24;100699.05;;;16.36;43.83
61436;BME280;47304;47.456;19.160;2023-10-08T14:55:53;100700.35;;;16.33;43.70
61436;BME280;47304;47.456;19.160;2023-10-08T14:58:22;100693.70;;;16.30;43.54
61436;BME280;47304;47.456;19.160;2023-10-08T15:00:50;100692.34;;;16.27;43.55
61436;BME280;47304;47.456;19.160;2023-10-08T15:03:18;100699.63;;;16.25;43.37
61436;BME280;47304;47.456;19.160;2023-10-08T15:05:47;100706.59;;;16.21;43.21
61436;BME280;47304;47.456;19.160;2023-10-08T15:08:15;100704.38;;;16.17;43.12
61436;BME280;47304;47.456;19.160;2023-10-08T15:10:44;100703.41;;;16.12;42.97
61436;BME280;47304;47.456;19.160;2023-10-08T15:13:13;100708.25;;;16.07;43.01
61436;BME280;47304;47.456;19.160;2023-10-08T15:15:41;100705.38;;;16.01;42.94
61436;BME280;47304;47.456;19.160;2023-10-08T15:18:10;100717.80;;;15.97;42.86
61436;BME280;47304;47.456;19.160;2023-10-08T15:20:39;100722.98;;;15.93;43.07
61436;BME280;47304;47.456;19.160;2023-10-08T15:23:07;100725.16;;;15.90;43.10
61436;BME280;47304;47.456;19.160;2023-10-08T15:25:35;100719.75;;;15.86;43.11
61436;BME280;47304;47.456;19.160;2023-10-08T15:28:05;100727.39;;;15.81;43.10
61436;BME280;47304;47.456;19.160;2023-10-08T15:30:33;100727.67;;;15.74;43.22
61436;BME280;47304;47.456;19.160;2023-10-08T15:33:01;100728.80;;;15.71;43.27
61436;BME280;47304;47.456;19.160;2023-10-08T15:35:30;100727.80;;;15.67;43.44
61436;BME280;47304;47.456;19.160;2023-10-08T15:37:58;100730.32;;;15.64;43.55
61436;BME280;47304;47.456;19.160;2023-10-08T15:40:27;100729.48;;;15.60;43.67
61436;BME280;47304;47.456;19.160;2023-10-08T15:42:56;100727.95;;;15.58;43.88
61436;BME280;47304;47.456;19.160;2023-10-08T15:45:27;100734.69;;;15.55;43.61
61436;BME280;47304;47.456;19.160;2023-10-08T15:47:55;100749.21;;;15.52;43.27
61436;BME280;47304;47.456;19.160;2023-10-08T15:50:24;100757.74;;;15.49;43.32
61436;BME280;47304;47.456;19.160;2023-10-08T15:52:52;100772.94;;;15.47;43.28
61436;BME280;47304;47.456;19.160;2023-10-08T15:55:21;100778.79;;;15.46;43.51
61436;BME280;47304;47.456;19.160;2023-10-08T15:57:50;100789.06;;;15.43;44.15
61436;BME280;47304;47.456;19.160;2023-10-08T16:00:18;100781.67;;;15.41;44.51
61436;BME280;47304;47.456;19.160;2023-10-08T16:02:47;100778.19;;;15.38;44.54
61436;BME280;47304;47.456;19.160;2023-10-08T16:05:15;100781.23;;;15.35;44.39
61436;BME280;47304;47.456;19.160;2023-10-08T16:07:44;100787.14;;;15.28;44.30
61436;BME280;47304;47.456;19.160;2023-10-08T16:10:12;100799.38;;;15.24;44.20
61436;BME280;47304;47.456;19.160;2023-10-08T16:12:41;100801.77;;;15.17;44.24
61436;BME280;47304;47.456;19.160;2023-10-08T16:15:10;100817.86;;;15.13;44.28
61436;BME280;47304;47.456;19.160;2023-10-08T16:17:42;100833.95;;;15.10;44.35
61436;BME280;47304;47.456;19.160;2023-10-08T16:20:09;100847.74;;;15.08;44.56
61436;BME280;47304;47.456;19.160;2023-10-08T16:22:38;100856.59;;;15.05;44.74
61436;BME280;47304;47.456;19.160;2023-10-08T16:25:08;100859.43;;;15.03;44.62
61436;BME280;47304;47.456;19.160;2023-10-08T16:27:37;100865.83;;;15.00;44.60
61436;BME280;47304;47.456;19.160;2023-10-08T16:30:07;100859.01;;;14.95;44.71
61436;BME280;47304;47.456;19.160;2023-10-08T16:32:35;100850.06;;;14.90;44.78
61436;BME280;47304;47.456;19.160;2023-10-08T16:35:04;100852.93;;;14.85;44.99
61436;BME280;47304;47.456;19.160;2023-10-08T16:37:32;100863.75;;;14.79;45.38
61436;BME280;47304;47.456;19.160;2023-10-08T16:40:00;100865.92;;;14.73;45.58
61436;BME280;47304;47.456;19.160;2023-10-08T16:42:29;100865.27;;;14.65;45.36
61436;BME280;47304;47.456;19.160;2023-10-08T16:44:58;100869.77;;;14.56;45.57
61436;BME280;47304;47.456;19.160;2023-10-08T16:47:26;100877.03;;;14.49;45.73
61436;BME280;47304;47.456;19.160;2023-10-08T16:49:54;100880.61;;;14.44;45.93
61436;BME280;47304;47.456;19.160;2023-10-08T16:52:23;100886.11;;;14.39;46.13
61436;BME280;47304;47.456;19.160;2023-10-08T16:54:52;100890.02;;;14.34;46.24
61436;BME280;47304;47.456;19.160;2023-10-08T16:57:20;100891.45;;;14.30;46.40
61436;BME280;47304;47.456;19.160;2023-10-08T16:59:49;100896.78;;;14.25;46.35
61436;BME280;47304;47.456;19.160;2023-10-08T17:02:18;100906.68;;;14.21;46.46
61436;BME280;47304;47.456;19.160;2023-10-08T17:04:47;100917.47;;;14.16;46.38
61436;BME280;47304;47.456;19.160;2023-10-08T17:07:15;100921.38;;;14.11;46.53
61436;BME280;47304;47.456;19.160;2023-10-08T17:09:43;100926.33;;;14.07;46.53
61436;BME280;47304;47.456;19.160;2023-10-08T17:12:12;100937.27;;;14.04;46.65
61436;BME280;47304;47.456;19.160;2023-10-08T17:14:40;100939.93;;;14.00;46.68
61436;BME280;47304;47.456;19.160;2023-10-08T17:17:09;100942.24;;;13.97;46.44
61436;BME280;47304;47.456;19.160;2023-10-08T17:19:37;100937.33;;;13.93;46.51
61436;BME280;47304;47.456;19.160;2023-10-08T17:22:06;100933.48;;;13.89;46.66
61436;BME280;47304;47.456;19.160;2023-10-08T17:24:35;100930.86;;;13.84;46.63
61436;BME280;47304;47.456;19.160;2023-10-08T17:27:04;100925.95;;;13.79;46.63
61436;BME280;47304;47.456;19.160;2023-10-08T17:29:32;100927.02;;;13.75;46.49
61436;BME280;47304;47.456;19.160;2023-10-08T17:32:01;100933.38;;;13.71;46.41
61436;BME280;47304;47.456;19.160;2023-10-08T17:34:30;100931.98;;;13.69;46.33
61436;BME280;47304;47.456;19.160;2023-10-08T17:36:59;100934.10;;;13.66;46.45
61436;BME280;47304;47.456;19.160;2023-10-08T17:39:28;100941.16;;;13.65;46.32
61436;BME280;47304;47.456;19.160;2023-10-08T17:41:56;100941.17;;;13.61;46.36
61436;BME280;47304;47.456;19.160;2023-10-08T17:44:24;100947.17;;;13.57;46.36
61436;BME280;47304;47.456;19.160;2023-10-08T17:46:53;100943.15;;;13.52;46.24
61436;BME280;47304;47.456;19.160;2023-10-08T17:49:21;100950.73;;;13.47;46.34
61436;BME280;47304;47.456;19.160;2023-10-08T17:51:49;100951.98;;;13.41;46.10
61436;BME280;47304;47.456;19.160;2023-10-08T17:54:18;100962.69;;;13.37;46.08
61436;BME280;47304;47.456;19.160;2023-10-08T17:56:47;100968.33;;;13.33;46.07
61436;BME280;47304;47.456;19.160;2023-10-08T17:59:15;100978.36;;;13.30;46.09
61436;BME280;47304;47.456;19.160;2023-10-08T18:01:43;100978.55;;;13.27;46.01
61436;BME280;47304;47.456;19.160;2023-10-08T18:04:12;100979.25;;;13.24;46.10
61436;BME280;47304;47.456;19.160;2023-10-08T18:06:40;100982.96;;;13.22;45.96
61436;BME280;47304;47.456;19.160;2023-10-08T18:09:09;100982.95;;;13.19;45.92
61436;BME280;47304;47.456;19.160;2023-10-08T18:11:37;100977.86;;;13.16;45.77
61436;BME280;47304;47.456;19.160;2023-10-08T18:14:06;100972.05;;;13.12;45.82
61436;BME280;47304;47.456;19.160;2023-10-08T18:16:34;100971.19;;;13.08;45.72
61436;BME280;47304;47.456;19.160;2023-10-08T18:19:04;100977.16;;;13.05;45.87
61436;BME280;47304;47.456;19.160;2023-10-08T18:21:32;100983.51;;;13.03;45.72
61436;BME280;47304;47.456;19.160;2023-10-08T18:24:00;100994.41;;;13.01;45.70
61436;BME280;47304;47.456;19.160;2023-10-08T18:26:29;101000.91;;;13.00;45.83
61436;BME280;47304;47.456;19.160;2023-10-08T18:28:58;101004.60;;;12.96;45.73
61436;BME280;47304;47.456;19.160;2023-10-08T18:31:26;101012.70;;;12.94;45.89
61436;BME280;47304;47.456;19.160;2023-10-08T18:33:55;101021.85;;;12.93;45.71
61436;BME280;47304;47.456;19.160;2023-10-08T18:36:23;101030.98;;;12.91;45.83
61436;BME280;47304;47.456;19.160;2023-10-08T18:38:52;101033.45;;;12.89;45.49
61436;BME280;47304;47.456;19.160;2023-10-08T18:41:20;101036.25;;;12.86;45.49
61436;BME280;47304;47.456;19.160;2023-10-08T18:43:49;101039.25;;;12.83;45.34
61436;BME280;47304;47.456;19.160;2023-10-08T18:46:18;101041.18;;;12.81;45.22
61436;BME280;47304;47.456;19.160;2023-10-08T18:48:46;101046.80;;;12.78;44.99
61436;BME280;47304;47.456;19.160;2023-10-08T18:51:15;101050.14;;;12.75;44.68
61436;BME280;47304;47.456;19.160;2023-10-08T18:53:45;101055.05;;;12.71;44.37
61436;BME280;47304;47.456;19.160;2023-10-08T18:56:15;101060.32;;;12.68;44.48
61436;BME280;47304;47.456;19.160;2023-10-08T18:58:44;101062.60;;;12.66;44.50
61436;BME280;47304;47.456;19.160;2023-10-08T19:01:16;101065.42;;;12.65;44.45
61436;BME280;47304;47.456;19.160;2023-10-08T19:03:43;101072.09;;;12.64;44.43
61436;BME280;47304;47.456;19.160;2023-10-08T19:06:12;101076.31;;;12.64;44.36
61436;BME280;47304;47.456;19.160;2023-10-08T19:08:41;101082.64;;;12.66;44.63
61436;BME280;47304;47.456;19.160;2023-10-08T19:11:09;101085.98;;;12.65;44.95
61436;BME280;47304;47.456;19.160;2023-10-08T19:13:38;101092.30;;;12.62;44.93
61436;BME280;47304;47.456;19.160;2023-10-08T19:16:08;101101.44;;;12.60;44.95
61436;BME280;47304;47.456;19.160;2023-10-08T19:18:38;101106.52;;;12.59;44.98
61436;BME280;47304;47.456;19.160;2023-10-08T19:21:16;101111.81;;;12.60;44.74
61436;BME280;47304;47.456;19.160;2023-10-08T19:23:48;101104.25;;;12.60;44.99
61436;BME280;47304;47.456;19.160;2023-10-08T19:26:16;101100.02;;;12.57;44.95
61436;BME280;47304;47.456;19.160;2023-10-08T19:28:45;101100.89;;;12.54;44.70
61436;BME280;47304;47.456;19.160;2023-10-08T19:31:13;101103.52;;;12.52;44.52
61436;BME280;47304;47.456;19.160;2023-10-08T19:33:42;101107.02;;;12.50;44.21
61436;BME280;47304;47.456;19.160;2023-10-08T19:36:11;101107.20;;;12.48;44.06
61436;BME280;47304;47.456;19.160;2023-10-08T19:38:39;101105.96;;;12.47;43.92
61436;BME280;47304;47.456;19.160;2023-10-08T19:41:14;101108.05;;;12.45;43.87
61436;BME280;47304;47.456;19.160;2023-10-08T19:43:43;101103.65;;;12.41;43.83
61436;BME280;47304;47.456;19.160;2023-10-08T19:46:15;101106.63;;;12.38;43.87
61436;BME280;47304;47.456;19.160;2023-10-08T19:48:44;101103.80;;;12.33;43.78
61436;BME280;47304;47.456;19.160;2023-10-08T19:51:13;101105.73;;;12.30;43.70
61436;BME280;47304;47.456;19.160;2023-10-08T19:53:42;101108.18;;;12.27;43.85
61436;BME280;47304;47.456;19.160;2023-10-08T19:56:11;101109.20;;;12.24;43.88
61436;BME280;47304;47.456;19.160;2023-10-08T19:58:40;101110.60;;;12.22;43.82
61436;BME280;47304;47.456;19.160;2023-10-08T20:01:08;101115.50;;;12.19;44.03
61436;BME280;47304;47.456;19.160;2023-10-08T20:03:36;101121.48;;;12.17;44.35
61436;BME280;47304;47.456;19.160;2023-10-08T20:06:05;101131.84;;;12.17;44.33
61436;BME280;47304;47.456;19.160;2023-10-08T20:08:33;101131.82;;;12.15;44.35
61436;BME280;47304;47.456;19.160;2023-10-08T20:11:02;101140.43;;;12.13;44.50
61436;BME280;47304;47.456;19.160;2023-10-08T20:13:30;101145.84;;;12.11;44.57
61436;BME280;47304;47.456;19.160;2023-10-08T20:15:59;101146.54;;;12.07;44.59
61436;BME280;47304;47.456;19.160;2023-10-08T20:18:30;101141.26;;;12.04;44.45
61436;BME280;47304;47.456;19.160;2023-10-08T20:20:58;101142.13;;;12.04;44.41
61436;BME280;47304;47.456;19.160;2023-10-08T20:23:26;101144.38;;;12.01;44.52
61436;BME280;47304;47.456;19.160;2023-10-08T20:25:55;101141.40;;;11.99;44.56
61436;BME280;47304;47.456;19.160;2023-10-08T20:28:23;101141.17;;;11.96;44.38